Langdon, North Dakota
Current Conditions -  °F | °C
As of 7:55 AM on Monday 24 Nov 2014 (Local Time) from KD55 Reporting Station
Clear Clear  
Wind Chill: -22°   Ceiling: Unl
Heat Index:   Visibility: 10mi
Dew Point:   Wind: 25mph
Humidity: 92%   Direction: 350°N
Pressure: 29.73"   Gusts: NA
Location:  48.76°N, 98.37°W
Report Text: KD55 241355Z AUTO 35022KT 10SM CLR M17/M18 A2973 RMK AO2
Loading
Personal Weather Stations






























Interactive Weather Map New forecast layout! Learn more

10-Day Weather Forecast

Advertisements
Track Severe Weather on mobile